Terminal Aerodrome Forecast
Issued by NWS Wilmington, OH

Current Version | Previous Version | Text Only | Print | Product List | Glossary Off
Versions: 1 2 3 4 5 6 7 8 9 10 11 12 13 14 15 16 17 18 19

000
FTUS41 KILN 172332
TAFCMH
TAF
KCMH 172332Z 1800/1824 VRB03KT 1/2SM -SNDZ FG OVC004
     FM180200 24007KT 1SM -SNDZ BR OVC004
     FM180600 27010KT 2SM BR VCSH OVC004
     FM180800 28008KT P6SM OVC006
     FM181400 29005KT P6SM SCT010
     FM181600 16008KT P6SM SCT250=

USA.gov is the U.S. government's official web portal to all federal, state and local government web resources and services.